Image
Image
Image
Image
Image
Image
Image
Image
Image
Image
Image
Image
Image
City Time Now High Low DP Feels RH% Vsby Pressure Ceiling Direction Speed Gust Precip
Algona
VFR
8:15PM 70° 81° 52° 50° 70° 49
%
10
mi
1017.9
mb
11000
ft
WNW 3
mph
0.00"
KAXA 050115Z AUTO 29003KT 10SM BKN110 21/10 A3006 RMK A01
Ankeny
VFR
8:15PM 64° 77° 46° 45° 64° 49
%
10
mi
1019.0
mb
None SSE 6
mph
0.00"
KIKV 050115Z AUTO 15005KT 10SM CLR 18/07 A3009 RMK AO2
Atlantic
VFR
8:15PM 72° 81° 54° 52° 72° 50
%
10
mi
1017.3
mb
9500
ft
S 6
mph
0.00"
KAIO 050115Z AUTO 17005KT 10SM BKN095 BKN120 22/11 A3004 RMK AO2
Audubon
VFR
8:15PM 66° 81° 45° 52° 66° 60
%
10
mi
1017.9
mb
11000
ft
None Calm 0.00"
KADU 050115Z AUTO 00000KT 10SM SCT002 SCT065 BKN110 19/11 A3006 RMK AO2 PWINO
Ames
VFR
7:53PM 64° 77° 43° 48° 64° 56
%
10
mi
1018.6
mb
None SE 7
mph
0.00"
KAMW 050053Z AUTO 14006KT 10SM CLR 18/09 A3008 RMK AO2 SLP183 T01780089
Boone
VFR
8:15PM 64° 77° 46° 50° 64° 59
%
10
mi
1019.0
mb
None SE 9
mph
0.00"
KBNW 050115Z AUTO 14008KT 10SM CLR 18/10 A3009 RMK AO2
Burlington
VFR
7:53PM 60° 73° 40° 39° 60° 46
%
6
mi
1021.0
mb
None SSE 3
mph
0.00"
KBRL 050053Z AUTO 15003KT 6SM HZ CLR 16/04 A3015 RMK AO2 SLP209 T01560039
Carroll
IFR
8:15PM 68° 81° 45° 50° 68° 53
%
2
mi
1017.6
mb
7500
ft
SSE 3
mph
0.00"
KCIN 050115Z AUTO 15003KT 2SM HZ FEW043 SCT055 OVC075 20/10 A3005 RMK AO2
Cedar Rapids
VFR
7:52PM 59° 76° 39° 39° 59° 47
%
9
mi
1020.0
mb
None SE 3
mph
0.00"
KCID 050052Z 14003KT 9SM CLR 15/04 A3012 RMK AO2 SLP203 T01500039
Chariton
VFR
8:15PM 63° 77° 46° 39° 63° 42
%
10
mi
1019.3
mb
None SSE 6
mph
0.00"
KCNC 050115Z AUTO 16005KT 10SM CLR 17/04 A3010 RMK AO2
Charles City
VFR
8:15PM 63° 73° 46° 37° 63° 39
%
10
mi
1019.3
mb
None SSE 8
mph
0.00"
KCCY 050115Z AUTO 15007KT 10SM CLR 17/03 A3010 RMK AO2
Clarinda
VFR
8:15PM 72° 82° 45° 50° 72° 46
%
10
mi
1018.3
mb
None SSE 7
mph
0.00"
KICL 050115Z AUTO 15006KT 10SM CLR 22/10 A3007 RMK AO2
Clarion 8:15PM 68° 79° 52° 48° 68° 49
%
10
mi
1017.9
mb
SE 9
mph
0.00"
KCAV 050115Z AUTO 14008KT 10SM 20/09 A3006 RMK A01
Clinton
VFR
7:56PM 55° 74° 38° 44° 55° 67
%
9
mi
1021.3
mb
None SE 5
mph
0.00"
KCWI 050056Z AUTO 13004KT 9SM CLR 13/07 A3016 RMK AO2 SLP219 T01280067
Council Bluffs
VFR
8:15PM 68° 81° 50° 43° 68° 40
%
10
mi
1017.6
mb
7500
ft
NNW 7
mph
0.00"
KCBF 050115Z AUTO 33006KT 10SM SCT060 BKN075 OVC090 20/06 A3005 RMK AO2
Creston
VFR
8:15PM 66° 79° 48° 48° 66° 52
%
10
mi
1018.3
mb
None SE 9
mph
0.00"
KCSQ 050115Z AUTO 13008KT 10SM CLR 19/09 A3007 RMK AO2
Centerville
VFR
8:15PM 57° 77° 41° 37° 57° 47
%
10
mi
1020.3
mb
None None Calm 0.00"
KTVK 050115Z AUTO 00000KT 10SM CLR 14/03 A3013 RMK AO2
Cherokee
VFR
8:15PM 66° 78° 48° 49° 66° 55
%
10
mi
1017.6
mb
10000
ft
NNW 5
mph
0.00"
KCKP 050115Z AUTO 34004KT 10SM OVC100 19/10 A3005 RMK AO2 T01890096
Decorah
MVFR
8:15PM 59° 72° 48° 34° 59° 39
%
10
mi
1019.3
mb
2200
ft
SSE 7
mph
0.00"
KDEH 050115Z AUTO 16006KT 10SM BKN022 BKN026 15/01 A3010 RMK AO2
Denison
VFR
8:15PM 66° 81° 55° 50° 66° 56
%
9
mi
1018.6
mb
7500
ft
NNE 3
mph
0.00"
KDNS 050115Z AUTO 03003KT 9SM FEW045 SCT065 OVC075 19/10 A3008 RMK AO2
Dubuque
VFR
7:53PM 57° 73° 43° 39° 57° 51
%
10
mi
1021.0
mb
None None Calm 0.00"
KDBQ 050053Z 00000KT 10SM CLR 14/04 A3015 RMK AO2 SLP215 T01390039
Des Moines
VFR
7:54PM 68° 78° 52° 43° 68° 40
%
10
mi
1019.0
mb
25000
ft
SE 10
mph
0.00"
KDSM 050054Z 13009KT 10SM SCT160 BKN250 OVC300 20/06 A3009 RMK AO2 SLP186 T02000061
Estherville
VFR
7:52PM 68° 79° 49° 48° 68° 49
%
10
mi
1017.9
mb
9000
ft
NW 7
mph
0.00"
KEST 050052Z AUTO 32006KT 10SM SCT070 OVC090 20/09 A3006 RMK AO2 SLP178 T02000089
Fairfield
VFR
8:15PM 54° 73° 39° 36° 54° 50
%
10
mi
1020.3
mb
None SE 6
mph
0.00"
KFFL 050115Z AUTO 14005KT 10SM CLR 12/02 A3013 RMK A01
Fort Dodge
VFR
7:56PM 71° 79° 48° 49° 71° 45
%
10
mi
1017.9
mb
None SSE 8
mph
0.00"
KFOD 050056Z AUTO 16007KT 10SM CLR 22/09 A3006 RMK AO2 SLP189 T02170094
Fort Madison
LIFR
8:15PM 59° 75° 39° 41° 59° 51
%
10
mi
1021.0
mb
100
ft
SE 3
mph
0.00"
KFSW 050115Z AUTO 13003KT 10SM OVC001 15/05 A3015 RMK AO2
Forest City
VFR
8:15PM 61° 77° 45° 46° 61° 59
%
10
mi
1017.9
mb
None SE 6
mph
0.00"
KFXY 050115Z AUTO 13005KT 10SM CLR 16/08 A3006 RMK AO2
Grinnell
VFR
8:15PM 63° 77° 50° 43° 63° 48
%
10
mi
1020.0
mb
None SE 5
mph
0.00"
KGGI 050115Z AUTO 14004KT 10SM CLR 17/06 A3012 RMK AO2 T01720060
Harlan
VFR
8:15PM 70° 81° 50° 48° 70° 46
%
10
mi
1017.9
mb
9500
ft
NNW 6
mph
0.00"
KHNR 050115Z AUTO 34005KT 10SM FEW065 SCT075 BKN095 21/09 A3006 RMK A01
Hampton
VFR
8:15PM 61° 77° 45° 41° 61° 48
%
10
mi
1018.6
mb
None SSE 3
mph
0.00"
KHPT 050115Z AUTO 16003KT 10SM CLR 16/05 A3008 RMK AO2
Independence
VFR
8:15PM 53° 75° 42° 42° 53° 67
%
7
mi
1020.3
mb
None SE 9
mph
0.00"
KIIB 050115Z AUTO 13008KT 7SM CLR 11/05 A3013 RMK AO2 T01140054
Iowa City
VFR
7:52PM 58° 77° 41° 39° 58° 49
%
10
mi
1021.0
mb
None None Calm 0.00"
KIOW 050052Z AUTO 00000KT 10SM CLR 14/04 A3015 RMK AO2 SLP211 T01440039
Iowa Falls
VFR
8:15PM 63° 77° 47° 45° 63° 52
%
10
mi
1019.3
mb
None SE 7
mph
0.00"
KIFA 050115Z AUTO 14006KT 10SM CLR 17/07 A3010 RMK AO2 T01700070
Keokuk
VFR
8:15PM 55° 73° 41° 50° 55° 82
%
10
mi
1020.7
mb
None None Calm 0.00"
KEOK 050115Z AUTO 00000KT 10SM FEW027 13/10 A3014 RMK A01
Knoxville
VFR
8:15PM 64° 77° 48° 41° 64° 42
%
10
mi
1019.3
mb
None SSE 8
mph
0.00"
KOXV 050115Z AUTO 15007KT 10SM CLR 18/05 A3010 RMK AO2
Lamoni
VFR
7:53PM 67° 78° 51° 40° 67° 37
%
10
mi
1019.0
mb
None SE 9
mph
0.00"
KLWD 050053Z AUTO 14008KT 10SM CLR 19/04 A3009 RMK AO2 SLP189 T01940044
Le Mars
VFR
8:15PM 64° 73° 54° 50° 64° 59
%
10
mi
1017.3
mb
8500
ft
N 3
mph
0.00"
KLRJ 050115Z AUTO 35003KT 10SM OVC085 18/10 A3004 RMK AO2
Marshalltown
VFR
7:53PM 63° 75° 43° 40° 63° 43
%
10
mi
1019.3
mb
None SSE 7
mph
0.00"
KMIW 050053Z AUTO 16006KT 10SM CLR 17/04 A3010 RMK AO2 SLP193 T01720044
Mason City
VFR
7:53PM 63° 76° 44° 43° 63° 48
%
10
mi
1019.0
mb
None SSE 9
mph
0.00"
KMCW 050053Z AUTO 15008KT 10SM CLR 17/06 A3009 RMK AO2 SLP185 T01720061
Mount Pleasant
VFR
8:10PM 54° 77° 41° 45° 54° 71
%
10
mi
1021.0
mb
None SSE 5
mph
0.00"
KMPZ 050110Z AUTO 15004KT 10SM CLR 12/07 A3015 RMK AO2
Muscatine
VFR
8:15PM 55° 75° 39° 43° 55° 62
%
10
mi
1021.0
mb
None None Calm 0.00"
KMUT 050115Z AUTO 00000KT 10SM CLR 13/06 A3015 RMK AO2
Newton
VFR
8:15PM 61° 75° 46° 41° 61° 48
%
10
mi
1019.3
mb
None SE 7
mph
0.00"
KTNU 050115Z AUTO 14006KT 10SM CLR 16/05 A3010 RMK A01
Oelwein
VFR
8:15PM 57° 73° 45° 39° 57° 51
%
10
mi
1020.0
mb
None SSE 7
mph
0.00"
KOLZ 050115Z AUTO 15006KT 10SM CLR 14/04 A3012 RMK A01
Ottumwa
VFR
7:53PM 57° 74° 41° 44° 57° 62
%
10
mi
1020.0
mb
None SE 7
mph
0.00"
KOTM 050053Z AUTO 13006KT 10SM CLR 14/07 A3012 RMK AO2 SLP200 T01390067
Osceola
VFR
8:15PM 61° 79° 47° 45° 61° 56
%
10
mi
1019.0
mb
None SE 6
mph
0.00"
KI75 050115Z AUTO 13005KT 10SM CLR 16/07 A3009 RMK AO2 T01590070
Oskaloosa
VFR
8:15PM 60° 78° 43° 48° 60° 64
%
7
mi
1020.0
mb
None SE 7
mph
0.00"
KOOA 050115Z AUTO 14006KT 7SM CLR 16/09 A3012 RMK AO2 T01560087
Pella
VFR
8:15PM 61° 76° 47° 44° 61° 52
%
10
mi
1019.6
mb
None SE 7
mph
0.00"
KPEA 050115Z AUTO 13006KT 10SM CLR 16/06 A3011 RMK AO2 T01620064
Quad Cities
VFR
7:52PM 52° 74° 39° 43° 52° 71
%
10
mi
1021.7
mb
None SSE 6
mph
0.00"
KDVN 050052Z AUTO 15005KT 10SM CLR 11/06 A3017 RMK AO2 SLP215 T01110061
Red Oak
VFR
8:15PM 72° 82° 52° 50° 72° 46
%
10
mi
1017.3
mb
10000
ft
S 6
mph
0.00"
KRDK 050115Z AUTO 17005KT 10SM FEW065 SCT075 OVC100 22/10 A3004 RMK AO2
Sheldon
VFR
8:15PM 63° 73° 52° 50° 63° 63
%
7
mi
1017.3
mb
9500
ft
NE 6
mph
0.00"
KSHL 050115Z AUTO 05005KT 7SM BKN095 OVC110 17/10 A3004 RMK AO2
Shenandoah
VFR
8:15PM 72° 84° 48° 50° 72° 46
%
10
mi
1016.9
mb
9000
ft
SE 8
mph
0.00"
KSDA 050115Z AUTO 14007KT 10SM BKN090 OVC110 22/10 A3003 RMK AO2
Sioux City
VFR
7:52PM 66° 76° 51° 51° 66° 59
%
10
mi
1017.6
mb
8500
ft
None Calm 0.00"
KSUX 050052Z 00000KT 10SM OVC085 19/11 A3005 RMK AO2 SLP174 T01890106
Spencer
VFR
7:53PM 69° 81° 51° 46° 69° 44
%
10
mi
1017.3
mb
10000
ft
SE 3
mph
Trace
KSPW 050053Z AUTO 14003KT 10SM FEW075 BKN100 OVC120 21/08 A3004 RMK AO2 RAB2359E20 SLP172 P0000 T02060078
Sioux County
VFR
8:15PM 63° 72° 54° 54° 63° 72
%
10
mi
1017.3
mb
8500
ft
NNE 6
mph
0.00"
KSXK 050115Z AUTO 02005KT 10SM FEW002 OVC085 17/12 A3004 RMK AO2
Storm Lake
VFR
8:15PM 66° 81° 48° 46° 66° 49
%
10
mi
1018.3
mb
None None Calm 0.00"
KSLB 050115Z AUTO 00000KT 10SM FEW065 FEW080 SCT095 19/08 A3007 RMK AO2
Vinton
VFR
7:55PM 63° 78° 42° 35° 63° 35
%
10
mi
1020.0
mb
None SE 6
mph
0.00"
KVTI 050055Z AUTO 14005KT 10SM CLR 17/02 A3012 RMK AO2 T01710016
Washington
VFR
8:15PM 57° 77° 37° 39° 57° 51
%
9
mi
1020.3
mb
None S 6
mph
0.00"
KAWG 050115Z AUTO 17005KT 9SM CLR 14/04 A3013 RMK AO2
Waterloo
VFR
7:54PM 67° 77° 44° 37° 67° 33
%
10
mi
1019.3
mb
None SSE 6
mph
0.00"
KALO 050054Z AUTO 15005KT 10SM CLR 19/03 A3010 RMK AO2 SLP192 T01940028
Webster City
VFR
8:15PM 68° 79° 48° 48° 68° 49
%
10
mi
1017.6
mb
None SSE 12
mph
0.00"
KEBS 050115Z AUTO 15010KT 10SM CLR 20/09 A3005 RMK AO2
Click here to show this page without METARs included